Time;durP1;ratioP1;P1;durP2;ratioP2;P2;SDS_P1;SDS_P2;PMS_P1;PMS_P2;Temp;Humidity;BMP_temperature;BMP_pressure;BME280_temperature;BME280_humidity;BME280_pressure;Samples;Min_cycle;Max_cycle;Signal;HPM_P1;HPM_P2
2023/09/01 00:00:44;;;;;;;2.60;2.40;;;;;;;15.44;100.00;99425.97;5026846;28;20663;-79
2023/09/01 00:03:35;;;;;;;2.40;2.20;;;;;;;15.46;100.00;99430.31;5016296;28;20305;-80
2023/09/01 00:06:10;;;;;;;2.20;2.00;;;;;;;15.47;100.00;99431.94;5028226;28;20202;-80
2023/09/01 00:08:39;;;;;;;2.60;2.40;;;;;;;15.47;100.00;99431.94;5027403;28;20225;-81
2023/09/01 00:11:06;;;;;;;2.63;2.43;;;;;;;15.47;100.00;99429.25;5010591;28;20226;-79
2023/09/01 00:13:35;;;;;;;3.00;2.23;;;;;;;15.46;100.00;99433.00;5026894;28;20198;-83
2023/09/01 00:16:02;;;;;;;2.20;2.00;;;;;;;15.46;100.00;99436.53;5026880;28;20712;-79
2023/09/01 00:18:30;;;;;;;2.87;2.20;;;;;;;15.46;100.00;99433.81;5027728;28;20234;-79
2023/09/01 00:20:59;;;;;;;2.73;2.30;;;;;;;15.47;100.00;99434.63;5027267;28;20191;-78
2023/09/01 00:23:28;;;;;;;2.80;2.17;;;;;;;15.47;100.00;99440.03;5027391;28;20207;-80
2023/09/01 00:25:58;;;;;;;2.40;2.10;;;;;;;15.45;100.00;99429.47;5008944;28;20194;-79
2023/09/01 00:28:27;;;;;;;3.20;2.17;;;;;;;15.47;100.00;99432.75;5023763;28;20195;-80
2023/09/01 00:30:59;;;;;;;2.30;2.10;;;;;;;15.47;100.00;99432.75;5005557;28;20297;-79
2023/09/01 00:33:29;;;;;;;2.30;2.10;;;;;;;15.47;100.00;99429.25;5008569;28;20747;-80
2023/09/01 00:35:59;;;;;;;2.93;2.23;;;;;;;15.46;100.00;99436.53;5027636;28;20641;-79
2023/09/01 00:38:32;;;;;;;3.23;2.07;;;;;;;15.43;100.00;99439.75;5005241;28;20202;-80
2023/09/01 00:41:01;;;;;;;3.73;2.60;;;;;;;15.44;100.00;99433.28;5023017;28;20237;-79
2023/09/01 00:43:30;;;;;;;2.57;2.37;;;;;;;15.45;100.00;99437.59;5024625;28;20202;-79
2023/09/01 00:45:59;;;;;;;2.43;2.23;;;;;;;15.48;100.00;99449.78;5005766;28;20202;-80
2023/09/01 00:48:26;;;;;;;2.23;2.10;;;;;;;15.51;100.00;99449.28;5024561;28;20567;-79
2023/09/01 00:50:54;;;;;;;2.50;2.30;;;;;;;15.52;100.00;99446.34;5025192;28;20277;-79
2023/09/01 00:53:22;;;;;;;2.40;2.20;;;;;;;15.52;100.00;99437.41;4990742;28;20211;-79
2023/09/01 00:55:50;;;;;;;2.50;2.30;;;;;;;15.54;100.00;99440.69;5027420;28;20226;-78
2023/09/01 00:58:17;;;;;;;2.37;2.17;;;;;;;15.55;100.00;99440.41;5024696;28;20237;-83
2023/09/01 01:00:46;;;;;;;2.57;2.23;;;;;;;15.56;100.00;99438.53;5022234;28;20533;-79
2023/09/01 01:03:14;;;;;;;2.50;2.30;;;;;;;15.56;100.00;99428.53;5026058;28;20222;-80
2023/09/01 01:05:57;;;;;;;2.50;2.23;;;;;;;15.55;100.00;99437.72;5014212;28;20229;-80
2023/09/01 01:08:27;;;;;;;2.50;2.30;;;;;;;15.52;100.00;99440.94;5019018;28;20195;-80
2023/09/01 01:11:01;;;;;;;3.63;2.30;;;;;;;15.53;100.00;99439.88;5027696;28;20727;-79
2023/09/01 01:13:40;;;;;;;2.70;2.33;;;;;;;15.53;100.00;99439.88;4981218;28;20695;-80
2023/09/01 01:16:07;;;;;;;2.60;2.37;;;;;;;15.52;100.00;99440.94;4994640;28;20229;-79
2023/09/01 01:18:35;;;;;;;4.13;2.50;;;;;;;15.51;100.00;99442.00;5010911;28;20214;-82
2023/09/01 01:21:09;;;;;;;2.73;2.03;;;;;;;15.49;100.00;99444.09;5008949;28;20561;-79
2023/09/01 01:23:38;;;;;;;2.80;2.10;;;;;;;15.45;100.00;99451.09;5017884;28;20232;-79
2023/09/01 01:26:13;;;;;;;2.37;2.17;;;;;;;15.42;100.00;99465.09;4991026;28;20226;-79
2023/09/01 01:28:41;;;;;;;2.50;2.30;;;;;;;15.38;100.00;99447.78;5009486;28;20642;-79
2023/09/01 01:31:09;;;;;;;2.97;2.20;;;;;;;15.42;100.00;99449.72;5005470;28;20222;-82
2023/09/01 01:33:44;;;;;;;2.63;2.43;;;;;;;15.45;100.00;99445.69;5010111;28;20723;-81
2023/09/01 01:36:21;;;;;;;3.13;2.40;;;;;;;15.48;100.00;99438.97;5021764;28;20296;-80
2023/09/01 01:39:05;;;;;;;2.40;2.30;;;;;;;15.51;100.00;99447.41;5029211;28;20189;-79
2023/09/01 01:41:52;;;;;;;2.90;2.40;;;;;;;15.52;100.00;99443.63;4989970;28;20211;-80
2023/09/01 01:44:25;;;;;;;2.40;2.20;;;;;;;15.53;100.00;99445.28;5020401;28;20213;-79
2023/09/01 01:46:54;;;;;;;2.20;2.00;;;;;;;15.52;100.00;99438.25;5004809;28;20285;-79
2023/09/01 01:49:21;;;;;;;2.50;2.30;;;;;;;15.52;100.00;99443.63;5025889;28;20206;-80
2023/09/01 01:51:50;;;;;;;2.43;2.23;;;;;;;15.50;100.00;99443.03;5025001;28;20626;-79
2023/09/01 01:54:17;;;;;;;3.30;2.67;;;;;;;15.50;100.00;99443.03;5026984;28;20190;-80
2023/09/01 01:56:45;;;;;;;2.60;2.40;;;;;;;15.51;100.00;99450.09;5004177;28;20277;-79
2023/09/01 01:59:12;;;;;;;2.60;2.40;;;;;;;15.49;100.00;99446.00;4999613;28;20211;-79
2023/09/01 02:01:41;;;;;;;2.67;2.47;;;;;;;15.41;100.00;99437.28;5009748;28;20281;-79
2023/09/01 02:04:08;;;;;;;2.90;2.70;;;;;;;15.37;100.00;99446.16;5003938;28;20223;-79
2023/09/01 02:06:36;;;;;;;4.30;2.60;;;;;;;15.36;100.00;99447.22;5022812;28;20649;-80
2023/09/01 02:09:09;;;;;;;2.33;2.23;;;;;;;15.32;100.00;99446.09;5025360;28;20601;-80
2023/09/01 02:11:37;;;;;;;2.67;2.47;;;;;;;15.34;100.00;99449.38;5021491;28;20203;-81
2023/09/01 02:14:05;;;;;;;2.40;2.20;;;;;;;15.33;100.00;99447.72;5020183;28;20225;-80
2023/09/01 02:16:35;;;;;;;2.70;2.50;;;;;;;15.32;100.00;99457.72;5021351;28;20223;-81
2023/09/01 02:19:03;;;;;;;2.70;2.50;;;;;;;15.25;100.00;99459.81;4999839;28;20226;-80
2023/09/01 02:21:31;;;;;;;2.90;2.60;;;;;;;15.24;100.00;99463.56;5018048;28;20549;-80
2023/09/01 02:23:58;;;;;;;2.70;2.50;;;;;;;15.25;100.00;99478.72;4987847;28;20253;-79
2023/09/01 02:26:26;;;;;;;3.40;2.43;;;;;;;15.25;100.00;99473.31;5023021;28;20195;-79
2023/09/01 02:28:54;;;;;;;2.60;2.40;;;;;;;15.28;100.00;99482.75;5024592;28;20189;-78
2023/09/01 02:31:24;;;;;;;2.70;2.50;;;;;;;15.29;100.00;99476.31;5022874;28;20196;-86
2023/09/01 02:33:52;;;;;;;2.70;2.50;;;;;;;15.27;100.00;99463.06;5006164;28;20619;-80
2023/09/01 02:36:35;;;;;;;2.70;2.50;;;;;;;15.30;100.00;99459.84;5025519;28;20215;-79
2023/09/01 02:39:04;;;;;;;2.87;2.67;;;;;;;15.30;100.00;99462.53;5025728;28;20241;-79
2023/09/01 02:41:35;;;;;;;2.80;2.50;;;;;;;15.29;100.00;99469.03;5005985;28;20194;-79
2023/09/01 02:44:04;;;;;;;2.43;2.30;;;;;;;15.28;100.00;99464.69;5026724;28;20202;-78
2023/09/01 02:46:31;;;;;;;2.70;2.50;;;;;;;15.28;100.00;99450.38;5023936;28;20214;-79
2023/09/01 02:49:00;;;;;;;3.50;2.77;;;;;;;15.28;100.00;99451.19;5024307;28;20202;-79
2023/09/01 02:51:28;;;;;;;3.97;2.63;;;;;;;15.27;100.00;99444.16;5006714;28;20218;-79
2023/09/01 02:53:55;;;;;;;2.43;2.23;;;;;;;15.24;100.00;99458.19;5008481;28;20277;-80
2023/09/01 02:56:24;;;;;;;3.67;2.90;;;;;;;15.23;100.00;99455.72;5008923;28;20246;-80
2023/09/01 02:58:52;;;;;;;2.73;2.53;;;;;;;15.23;100.00;99450.31;5003132;28;20289;-80
2023/09/01 03:01:20;;;;;;;2.77;2.57;;;;;;;15.21;100.00;99445.16;5028007;28;20228;-79
2023/09/01 03:03:49;;;;;;;2.60;2.40;;;;;;;15.25;100.00;99450.91;5015596;28;20284;-79
2023/09/01 03:06:20;;;;;;;2.80;2.60;;;;;;;15.24;100.00;99460.88;5023210;28;20225;-79
2023/09/01 03:08:48;;;;;;;2.87;2.67;;;;;;;15.26;100.00;99452.50;5007005;28;20187;-80
2023/09/01 03:11:16;;;;;;;3.33;2.60;;;;;;;15.26;100.00;99449.81;5013151;28;20204;-82
2023/09/01 03:13:45;;;;;;;2.90;2.60;;;;;;;15.22;100.00;99454.91;5023549;28;20205;-79
2023/09/01 03:16:13;;;;;;;2.97;2.77;;;;;;;15.22;100.00;99460.31;5010493;28;20241;-79
2023/09/01 03:18:41;;;;;;;2.90;2.70;;;;;;;15.19;100.00;99460.81;5008276;28;20203;-79
2023/09/01 03:21:11;;;;;;;3.17;2.67;;;;;;;15.18;100.00;99458.38;5018133;28;20195;-79
2023/09/01 03:23:44;;;;;;;2.87;2.60;;;;;;;15.16;100.00;99455.13;4997629;28;20214;-80
2023/09/01 03:26:16;;;;;;;2.40;2.20;;;;;;;15.15;100.00;99454.31;5006468;28;20186;-80
2023/09/01 03:28:49;;;;;;;2.70;2.50;;;;;;;15.14;100.00;99455.38;5021838;28;20276;-79
2023/09/01 03:31:17;;;;;;;3.23;2.80;;;;;;;15.16;100.00;99461.34;5006350;28;20293;-80
2023/09/01 03:33:44;;;;;;;2.60;2.40;;;;;;;15.18;100.00;99458.38;5021459;28;20205;-79
2023/09/01 03:36:13;;;;;;;2.73;2.53;;;;;;;15.18;100.00;99453.78;5000946;28;20265;-79
2023/09/01 03:38:41;;;;;;;3.00;2.50;;;;;;;15.16;100.00;99449.72;4986999;28;20199;-79
2023/09/01 03:41:08;;;;;;;2.93;2.63;;;;;;;15.17;100.00;99445.94;5006597;28;20297;-80
2023/09/01 03:43:36;;;;;;;3.23;2.30;;;;;;;15.16;100.00;99444.31;5032022;28;20190;-79
2023/09/01 03:46:04;;;;;;;2.73;2.53;;;;;;;15.17;100.00;99437.84;5010121;28;20203;-80
2023/09/01 03:48:35;;;;;;;3.00;2.70;;;;;;;15.19;100.00;99443.81;5007621;28;20221;-80
2023/09/01 03:51:08;;;;;;;2.30;2.20;;;;;;;15.17;100.00;99446.75;5027780;28;20253;-81
2023/09/01 03:53:38;;;;;;;2.60;2.40;;;;;;;15.14;100.00;99441.88;5012309;28;20602;-80
2023/09/01 03:56:13;;;;;;;2.80;2.60;;;;;;;15.14;100.00;99444.56;5006172;28;20281;-80
2023/09/01 03:58:41;;;;;;;2.70;2.50;;;;;;;15.13;100.00;99444.81;5004027;28;20553;-79
2023/09/01 04:01:11;;;;;;;2.50;2.30;;;;;;;15.12;100.00;99448.56;5005432;28;20667;-80
2023/09/01 04:03:42;;;;;;;2.60;2.40;;;;;;;15.12;100.00;99443.19;5008764;28;20280;-79
2023/09/01 04:06:11;;;;;;;2.70;2.50;;;;;;;15.13;100.00;99445.63;5011300;28;20268;-80
2023/09/01 04:08:39;;;;;;;2.73;2.53;;;;;;;15.12;100.00;99444.00;5001114;28;20714;-80
2023/09/01 04:11:06;;;;;;;2.67;2.40;;;;;;;15.14;100.00;99451.84;5002970;28;20235;-80
2023/09/01 04:13:33;;;;;;;2.80;2.60;;;;;;;15.14;100.00;99447.28;5006580;28;20254;-79
2023/09/01 04:16:02;;;;;;;2.80;2.60;;;;;;;15.15;100.00;99445.38;5013370;28;20219;-79
2023/09/01 04:18:32;;;;;;;2.57;2.37;;;;;;;15.17;100.00;99454.03;5010001;28;20227;-79
2023/09/01 04:21:00;;;;;;;2.90;2.43;;;;;;;15.17;100.00;99454.03;4998917;28;20636;-82
2023/09/01 04:23:28;;;;;;;2.77;2.57;;;;;;;15.20;100.00;99465.16;4987335;28;20207;-79
2023/09/01 04:25:57;;;;;;;2.60;2.40;;;;;;;15.19;100.00;99466.22;5005597;28;20207;-80
2023/09/01 04:28:28;;;;;;;2.60;2.40;;;;;;;15.21;100.00;99457.88;5004284;28;20279;-80
2023/09/01 04:30:59;;;;;;;2.70;2.50;;;;;;;15.22;100.00;99449.50;5005102;28;20203;-80
2023/09/01 04:33:29;;;;;;;3.50;2.70;;;;;;;15.28;100.00;99445.81;4998102;28;20199;-80
2023/09/01 04:36:01;;;;;;;2.90;2.70;;;;;;;15.29;100.00;99449.31;4989882;28;20306;-80
2023/09/01 04:38:29;;;;;;;2.83;2.63;;;;;;;15.30;100.00;99449.03;5000348;28;20238;-79
2023/09/01 04:40:58;;;;;;;2.47;2.30;;;;;;;15.33;100.00;99450.44;5002157;28;20573;-79
2023/09/01 04:43:28;;;;;;;2.87;2.67;;;;;;;15.34;100.00;99450.19;4979455;28;20242;-79
2023/09/01 04:45:57;;;;;;;3.43;2.60;;;;;;;15.36;100.00;99439.94;5012289;28;20206;-79
2023/09/01 04:48:27;;;;;;;3.10;2.80;;;;;;;15.39;100.00;99442.16;5001941;28;20204;-79
2023/09/01 04:50:55;;;;;;;3.10;2.40;;;;;;;15.42;100.00;99443.50;5005265;28;20206;-79
2023/09/01 04:53:23;;;;;;;2.93;2.63;;;;;;;15.40;100.00;99451.03;5004756;28;20202;-80
2023/09/01 04:55:52;;;;;;;3.73;2.70;;;;;;;15.44;100.00;99450.25;5001707;28;20228;-79
2023/09/01 04:58:21;;;;;;;2.80;2.60;;;;;;;15.48;100.00;99444.38;5002741;28;20745;-80
2023/09/01 05:00:53;;;;;;;3.13;2.50;;;;;;;15.55;100.00;99451.22;5001909;28;20209;-79
2023/09/01 05:03:21;;;;;;;2.70;2.50;;;;;;;15.60;100.00;99442.34;4985767;28;20220;-79
2023/09/01 05:05:50;;;;;;;3.47;2.57;;;;;;;15.64;100.00;99444.28;5005778;28;20198;-80
2023/09/01 05:08:19;;;;;;;3.13;2.60;;;;;;;15.70;100.00;99445.94;5001668;28;20659;-84
2023/09/01 05:10:47;;;;;;;3.43;2.50;;;;;;;15.78;100.00;99437.38;5031421;28;20232;-79
2023/09/01 05:13:14;;;;;;;2.87;2.67;;;;;;;15.85;100.00;99439.88;5032072;28;20281;-80
2023/09/01 05:15:41;;;;;;;2.60;2.40;;;;;;;15.97;100.00;99440.50;5031799;28;20738;-80
2023/09/01 05:18:09;;;;;;;2.93;2.30;;;;;;;16.09;100.00;99443.84;5037343;28;20202;-79
2023/09/01 05:20:37;;;;;;;3.97;2.40;;;;;;;16.16;100.00;99446.28;5014479;28;20257;-80
2023/09/01 05:23:05;;;;;;;3.33;2.60;;;;;;;16.24;100.00;99459.31;5007755;28;20225;-81
2023/09/01 05:25:32;;;;;;;3.17;2.50;;;;;;;16.31;100.00;99451.81;5004559;28;20672;-80
2023/09/01 05:28:00;;;;;;;2.67;2.47;;;;;;;16.34;100.00;99453.97;5006904;28;20201;-79
2023/09/01 05:30:27;;;;;;;3.03;2.13;;;;;;;16.38;100.00;99459.69;5007387;28;20201;-80
2023/09/01 05:32:54;;;;;;;2.57;2.33;;;;;;;16.43;100.00;99462.41;5006986;28;20207;-79
2023/09/01 05:35:23;;;;;;;3.03;2.57;;;;;;;16.44;100.00;99458.63;5004036;28;20206;-81
2023/09/01 05:37:51;;;;;;;2.27;2.13;;;;;;;16.40;100.00;99462.94;5012375;28;20203;-80
2023/09/01 05:40:18;;;;;;;4.03;2.57;;;;;;;16.43;100.00;99465.13;5006707;28;20221;-81
2023/09/01 05:42:46;;;;;;;2.63;2.20;;;;;;;16.48;100.00;99476.78;5022835;28;20675;-80
2023/09/01 05:45:14;;;;;;;3.63;2.27;;;;;;;16.55;100.00;99471.16;5009484;28;20652;-85
2023/09/01 05:47:43;;;;;;;4.17;2.20;;;;;;;16.62;100.00;99472.56;5001880;28;20210;-80
2023/09/01 05:50:11;;;;;;;2.60;2.40;;;;;;;16.72;100.00;99469.91;5005263;28;20245;-80
2023/09/01 05:52:38;;;;;;;2.50;2.30;;;;;;;16.84;100.00;99474.31;5000961;28;20202;-80
2023/09/01 05:55:07;;;;;;;2.40;2.20;;;;;;;16.98;100.00;99473.53;5024537;28;20191;-81
2023/09/01 05:57:35;;;;;;;2.50;2.30;;;;;;;17.15;100.00;99476.84;5018351;28;20217;-81
2023/09/01 06:00:03;;;;;;;2.60;2.40;;;;;;;17.34;100.00;99474.47;5008081;28;20617;-80
2023/09/01 06:02:38;;;;;;;2.57;2.30;;;;;;;17.47;100.00;99475.84;5018444;28;20201;-80
2023/09/01 06:05:06;;;;;;;2.53;2.17;;;;;;;17.62;100.00;99472.38;5019907;28;21073;-80
2023/09/01 06:07:36;;;;;;;3.63;2.07;;;;;;;17.83;100.00;99471.31;5023065;28;20261;-81
2023/09/01 06:10:05;;;;;;;3.13;2.40;;;;;;;18.04;100.00;99472.94;5024468;28;20776;-81
2023/09/01 06:12:33;;;;;;;3.07;2.57;;;;;;;18.21;100.00;99481.59;5017053;28;20203;-81
2023/09/01 06:15:00;;;;;;;2.50;2.30;;;;;;;18.21;100.00;99484.31;5033530;28;20190;-80
2023/09/01 06:17:28;;;;;;;2.63;2.43;;;;;;;18.16;100.00;99487.03;5024940;28;20211;-81
2023/09/01 06:20:11;;;;;;;2.27;2.10;;;;;;;18.12;100.00;99495.97;5024249;28;20954;-80
2023/09/01 06:22:46;;;;;;;2.80;2.50;;;;;;;18.01;100.00;99501.38;5024160;28;20210;-82
2023/09/01 06:25:14;;;;;;;3.30;2.80;;;;;;;17.91;100.00;99511.44;5019679;28;20263;-80
2023/09/01 06:27:42;;;;;;;2.70;2.50;;;;;;;17.82;100.00;99500.31;5022290;28;20232;-80
2023/09/01 06:30:09;;;;;;;2.67;2.40;;;;;;;17.79;100.00;99510.88;5021402;28;20269;-80
2023/09/01 06:32:36;;;;;;;3.43;2.10;;;;;;;17.79;100.00;99497.31;5021821;28;20205;-82
2023/09/01 06:35:06;;;;;;;2.77;2.50;;;;;;;17.82;100.00;99496.78;5018449;28;20403;-79
2023/09/01 06:37:34;;;;;;;2.10;2.00;;;;;;;17.84;100.00;99506.28;5001200;28;20238;-79
2023/09/01 06:40:00;;;;;;;2.50;2.30;;;;;;;17.85;100.00;99507.09;5020582;28;20567;-79
2023/09/01 06:42:28;;;;;;;2.50;2.30;;;;;;;17.88;100.00;99506.53;5021404;28;20188;-81
2023/09/01 06:44:55;;;;;;;2.83;2.33;;;;;;;17.95;100.00;99512.53;5020896;28;20291;-80
2023/09/01 06:47:22;;;;;;;3.20;2.33;;;;;;;18.06;100.00;99516.84;5023138;28;20686;-81
2023/09/01 06:49:49;;;;;;;2.57;2.37;;;;;;;18.17;100.00;99517.66;5025918;28;20673;-83
2023/09/01 06:52:18;;;;;;;3.77;2.47;;;;;;;18.37;100.00;99523.09;5022057;28;20668;-81
2023/09/01 06:54:45;;;;;;;2.73;2.20;;;;;;;18.49;100.00;99523.59;5029500;28;20200;-81
2023/09/01 06:57:12;;;;;;;2.70;2.50;;;;;;;18.68;100.00;99519.25;5026538;28;20227;-80
2023/09/01 06:59:39;;;;;;;2.47;2.27;;;;;;;18.87;100.00;99528.44;5022346;28;20571;-80
2023/09/01 07:02:07;;;;;;;2.47;2.10;;;;;;;19.00;100.00;99534.34;5031464;28;20210;-79
2023/09/01 07:04:35;;;;;;;3.13;2.40;;;;;;;19.11;100.00;99531.34;5020670;28;20745;-81
2023/09/01 07:07:02;;;;;;;3.17;2.43;;;;;;;19.27;100.00;99534.81;5030138;28;20659;-80
2023/09/01 07:09:30;;;;;;;2.40;2.20;;;;;;;19.44;100.00;99519.00;5017794;28;20319;-81
2023/09/01 07:11:58;;;;;;;5.30;2.47;;;;;;;19.70;100.00;99519.66;5024585;28;20676;-79
2023/09/01 07:14:25;;;;;;;4.87;2.67;;;;;;;20.08;100.00;99523.44;5021214;28;20278;-79
2023/09/01 07:16:52;;;;;;;2.93;2.20;;;;;;;20.37;100.00;99523.50;5019528;28;20217;-80
2023/09/01 07:19:20;;;;;;;4.73;2.30;;;;;;;20.56;100.00;99521.69;5027406;28;20199;-79
2023/09/01 07:21:47;;;;;;;2.23;2.03;;;;;;;20.73;100.00;99502.19;5022615;28;20205;-79
2023/09/01 07:24:14;;;;;;;3.37;2.00;;;;;;;20.80;100.00;99495.31;5027027;28;20191;-86
2023/09/01 07:26:43;;;;;;;2.40;2.20;;;;;;;20.98;100.00;99494.56;5013007;28;20597;-79
2023/09/01 07:29:10;;;;;;;2.10;1.90;;;;;;;21.35;100.00;99495.75;5003039;28;20197;-80
2023/09/01 07:31:37;;;;;;;2.33;2.00;;;;;;;21.75;100.00;99502.50;5026974;28;20244;-78
2023/09/01 07:34:05;;;;;;;2.30;2.10;;;;;;;22.07;100.00;99504.50;5016083;28;20195;-78
2023/09/01 07:36:32;;;;;;;4.22;2.30;;;;;;;22.38;100.00;99511.06;5028963;28;20214;-78
2023/09/01 07:39:01;;;;;;;2.63;2.13;;;;;;;22.54;100.00;99511.59;5026680;28;20542;-78
2023/09/01 07:41:29;;;;;;;4.60;2.17;;;;;;;22.47;100.00;99516.63;5026769;28;20206;-78
2023/09/01 07:43:57;;;;;;;2.10;1.90;;;;;;;22.19;100.00;99515.75;5028494;28;20610;-78
2023/09/01 07:46:24;;;;;;;2.63;2.17;;;;;;;22.30;100.00;99533.59;5028197;28;20703;-78
2023/09/01 07:48:52;;;;;;;1.92;1.73;;;;;;;22.46;100.00;99543.13;5028436;28;20203;-78
2023/09/01 07:51:19;;;;;;;2.90;1.80;;;;;;;22.86;100.00;99549.00;5029727;28;20705;-78
2023/09/01 07:53:46;;;;;;;2.10;1.90;;;;;;;23.16;100.00;99551.13;5026639;28;20661;-78
2023/09/01 07:56:13;;;;;;;2.63;2.03;;;;;;;23.48;100.00;99552.94;5030976;28;20199;-79
2023/09/01 07:58:40;;;;;;;2.20;1.80;;;;;;;23.54;100.00;99547.06;5028125;28;20202;-77
2023/09/01 08:01:08;;;;;;;3.28;1.80;;;;;;;23.64;100.00;99549.59;5007103;28;20285;-78
2023/09/01 08:03:36;;;;;;;2.70;1.65;;;;;;;23.81;100.00;99531.69;5011777;28;20225;-79
2023/09/01 08:06:04;;;;;;;2.83;1.90;;;;;;;24.07;100.00;99521.78;5027270;28;20200;-81
2023/09/01 08:08:31;;;;;;;2.15;1.85;;;;;;;24.46;100.00;99521.09;5019183;28;20317;-78
2023/09/01 08:10:59;;;;;;;3.20;1.70;;;;;;;24.83;100.00;99533.53;5024424;28;20232;-78
2023/09/01 08:13:27;;;;;;;2.60;1.85;;;;;;;24.96;95.75;99521.69;5024635;28;20218;-78
2023/09/01 08:15:54;;;;;;;1.90;1.80;;;;;;;24.90;94.39;99512.00;5019283;28;20682;-79
2023/09/01 08:18:21;;;;;;;4.47;1.75;;;;;;;24.94;95.77;99504.75;5000000;28;20208;-77
2023/09/01 08:20:49;;;;;;;2.53;1.85;;;;;;;25.14;94.64;99504.19;5023496;28;20608;-77
2023/09/01 08:23:16;;;;;;;3.33;1.95;;;;;;;25.08;90.39;99486.25;5018766;28;20209;-78
2023/09/01 08:25:43;;;;;;;2.22;1.90;;;;;;;25.20;90.75;99494.66;5024679;28;20205;-78
2023/09/01 08:28:10;;;;;;;2.05;1.80;;;;;;;25.31;89.94;99495.19;5028326;28;20200;-78
2023/09/01 08:30:38;;;;;;;2.13;1.80;;;;;;;25.41;87.23;99484.72;5028888;28;20201;-78
2023/09/01 08:33:05;;;;;;;2.67;2.13;;;;;;;25.47;85.71;99488.13;5031038;28;20285;-77
2023/09/01 08:35:33;;;;;;;3.13;1.80;;;;;;;25.60;84.47;99489.13;5032532;28;20194;-78
2023/09/01 08:38:00;;;;;;;2.67;1.90;;;;;;;25.75;85.53;99489.47;5026881;28;20572;-78
2023/09/01 08:40:27;;;;;;;3.38;1.85;;;;;;;26.08;84.45;99499.94;5009209;28;20201;-77
2023/09/01 08:42:57;;;;;;;1.98;1.88;;;;;;;26.34;81.87;99506.19;5006391;28;20541;-79
2023/09/01 08:45:24;;;;;;;2.50;1.80;;;;;;;26.31;81.50;99501.38;5020106;28;20638;-77
2023/09/01 08:47:52;;;;;;;2.70;1.90;;;;;;;26.15;81.00;99508.47;5027669;28;20237;-78
2023/09/01 08:50:21;;;;;;;2.58;1.85;;;;;;;26.03;82.46;99500.09;5020171;28;20661;-78
2023/09/01 08:52:49;;;;;;;2.40;1.90;;;;;;;25.98;83.74;99490.09;5031499;28;20252;-78
2023/09/01 08:55:17;;;;;;;2.50;2.00;;;;;;;25.93;83.27;99494.94;5031557;28;20229;-77
2023/09/01 08:57:47;;;;;;;2.50;1.95;;;;;;;26.04;81.28;99479.72;5024507;28;20221;-82
2023/09/01 09:00:15;;;;;;;3.45;1.95;;;;;;;26.08;80.60;99484.22;5032083;28;20202;-77
2023/09/01 09:02:44;;;;;;;3.08;1.90;;;;;;;26.04;79.41;99483.28;5030661;28;20199;-78
2023/09/01 09:05:27;;;;;;;2.33;1.80;;;;;;;25.85;80.76;99475.38;5017008;28;20688;-79
2023/09/01 09:08:03;;;;;;;2.58;1.80;;;;;;;25.86;80.86;99465.22;5006140;28;20668;-79
2023/09/01 09:10:51;;;;;;;2.22;1.85;;;;;;;25.80;83.61;99469.28;5012436;28;20234;-78
2023/09/01 09:13:23;;;;;;;2.05;1.88;;;;;;;25.77;84.19;99475.41;5026728;28;20190;-78
2023/09/01 09:16:08;;;;;;;2.13;1.75;;;;;;;25.78;83.60;99485.25;5004237;28;20202;-79
2023/09/01 09:18:37;;;;;;;1.67;1.58;;;;;;;26.07;84.43;99482.66;5009231;28;20559;-79
2023/09/01 09:21:28;;;;;;;2.47;1.80;;;;;;;26.20;84.28;99481.66;5013499;28;20278;-78
2023/09/01 09:23:58;;;;;;;3.08;2.10;;;;;;;26.26;83.49;99487.81;5005614;28;20207;-78
2023/09/01 09:26:45;;;;;;;2.15;1.95;;;;;;;26.35;82.32;99496.84;5007885;28;20187;-79
2023/09/01 09:29:15;;;;;;;1.95;1.73;;;;;;;26.49;80.90;99496.63;5027307;28;20661;-77
2023/09/01 09:31:44;;;;;;;5.55;1.88;;;;;;;26.86;80.16;99489.56;5029395;28;20554;-78
2023/09/01 09:34:18;;;;;;;2.03;1.83;;;;;;;27.04;81.57;99496.59;5026481;28;20195;-79
2023/09/01 09:36:47;;;;;;;2.08;1.80;;;;;;;27.35;78.92;99493.50;5025578;28;20688;-80
2023/09/01 09:39:24;;;;;;;3.25;1.80;;;;;;;27.41;78.82;99494.91;5019216;28;20650;-80
2023/09/01 09:41:53;;;;;;;2.58;1.88;;;;;;;27.57;77.47;99491.28;5015608;28;20198;-80
2023/09/01 09:44:32;;;;;;;3.05;1.90;;;;;;;27.87;76.76;99493.94;5029410;28;20197;-78
2023/09/01 09:47:03;;;;;;;1.98;1.73;;;;;;;28.11;75.81;99493.25;5029785;28;20705;-79
2023/09/01 09:49:32;;;;;;;2.08;1.83;;;;;;;28.21;74.92;99496.41;5010265;28;20218;-80
2023/09/01 09:52:00;;;;;;;4.03;1.90;;;;;;;28.33;73.47;99488.16;5028921;28;20194;-79
2023/09/01 09:54:29;;;;;;;1.83;1.70;;;;;;;28.26;75.46;99482.41;5000751;28;20202;-80
2023/09/01 09:56:57;;;;;;;2.50;2.10;;;;;;;28.61;72.93;99495.78;5007557;28;20294;-79
2023/09/01 09:59:32;;;;;;;2.22;1.75;;;;;;;28.94;72.38;99499.31;5007703;28;20249;-79
2023/09/01 10:02:04;;;;;;;3.10;2.00;;;;;;;29.18;71.97;99495.75;5010492;28;20280;-79
2023/09/01 10:04:34;;;;;;;2.00;1.90;;;;;;;29.35;69.72;99483.69;5008615;28;20215;-79
2023/09/01 10:07:02;;;;;;;2.35;1.80;;;;;;;29.09;69.60;99473.81;5008963;28;20286;-79
2023/09/01 10:09:30;;;;;;;2.60;1.95;;;;;;;29.04;70.10;99474.03;5008668;28;20241;-78
2023/09/01 10:11:58;;;;;;;1.83;1.73;;;;;;;29.00;67.92;99473.13;5002875;28;20672;-77
2023/09/01 10:14:25;;;;;;;2.75;1.60;;;;;;;28.37;66.87;99458.78;5022662;28;20203;-77
2023/09/01 10:16:52;;;;;;;1.80;1.70;;;;;;;28.23;69.33;99461.03;5028844;28;20690;-81
2023/09/01 10:19:21;;;;;;;2.20;1.80;;;;;;;28.08;69.02;99456.19;5022477;28;20241;-82
2023/09/01 10:21:48;;;;;;;2.40;1.70;;;;;;;27.91;70.57;99461.84;5024522;28;20578;-79
2023/09/01 10:24:16;;;;;;;2.47;1.77;;;;;;;28.19;70.92;99462.06;5025260;28;20240;-79
2023/09/01 10:26:44;;;;;;;2.05;1.95;;;;;;;28.10;69.82;99461.31;5017140;28;20688;-80
2023/09/01 10:29:12;;;;;;;2.60;2.00;;;;;;;28.28;70.51;99457.28;5020444;28;20206;-79
2023/09/01 10:31:44;;;;;;;3.35;2.00;;;;;;;28.31;70.92;99453.84;5024295;28;20205;-78
2023/09/01 10:34:12;;;;;;;1.95;1.60;;;;;;;28.23;70.01;99452.78;5023391;28;20657;-79
2023/09/01 10:36:44;;;;;;;2.92;1.88;;;;;;;28.26;69.71;99465.91;5008357;28;20191;-78
2023/09/01 10:39:18;;;;;;;2.33;2.13;;;;;;;27.15;72.11;99453.84;5025526;28;20708;-79
2023/09/01 10:42:02;;;;;;;1.98;1.77;;;;;;;27.13;74.07;99454.16;5017865;28;20214;-80
2023/09/01 10:44:39;;;;;;;2.92;1.88;;;;;;;26.88;72.70;99449.59;5003688;28;20191;-79
2023/09/01 10:47:31;;;;;;;3.67;1.95;;;;;;;26.08;74.37;99456.00;5021629;28;20525;-78
2023/09/01 10:50:02;;;;;;;2.33;1.83;;;;;;;26.37;75.66;99444.31;5017907;28;20193;-79
2023/09/01 10:52:34;;;;;;;2.17;1.98;;;;;;;26.64;76.07;99449.41;5016340;28;20278;-79
2023/09/01 10:55:05;;;;;;;2.83;1.92;;;;;;;26.90;74.88;99441.84;5028746;28;20186;-78
2023/09/01 10:57:43;;;;;;;2.90;2.05;;;;;;;26.84;73.96;99447.81;5006711;28;20241;-78
2023/09/01 11:00:30;;;;;;;3.42;2.20;;;;;;;26.93;72.96;99448.63;5020061;28;20202;-78
2023/09/01 11:03:30;;;;;;;2.78;2.00;;;;;;;27.21;72.79;99436.00;5011009;28;20194;-78
2023/09/01 11:05:59;;;;;;;2.10;1.92;;;;;;;27.46;74.25;99443.25;5022326;28;20221;-78
2023/09/01 11:08:31;;;;;;;2.33;1.80;;;;;;;27.93;72.81;99446.59;5003542;28;20198;-79
2023/09/01 11:11:08;;;;;;;2.28;1.77;;;;;;;28.04;70.61;99439.50;5024604;28;20320;-78
2023/09/01 11:13:36;;;;;;;1.85;1.75;;;;;;;28.16;70.48;99444.28;5000610;28;20413;-79
2023/09/01 11:16:08;;;;;;;2.72;1.88;;;;;;;28.17;69.56;99439.59;5023636;28;20214;-78
2023/09/01 11:18:36;;;;;;;2.15;1.80;;;;;;;28.20;68.96;99430.63;5008469;28;20284;-79
2023/09/01 11:21:08;;;;;;;2.65;1.85;;;;;;;27.92;69.82;99422.97;5023514;28;20191;-78
2023/09/01 11:23:37;;;;;;;2.15;1.95;;;;;;;27.99;72.25;99425.97;5020505;28;20261;-78
2023/09/01 11:26:04;;;;;;;2.58;2.00;;;;;;;28.01;72.21;99420.13;5031430;28;20186;-79
2023/09/01 11:28:34;;;;;;;2.70;1.90;;;;;;;28.20;71.05;99420.44;5014720;28;20284;-78
2023/09/01 11:31:05;;;;;;;2.10;1.90;;;;;;;28.62;69.74;99420.25;5009029;28;20194;-78
2023/09/01 11:33:33;;;;;;;4.45;1.90;;;;;;;28.65;68.28;99425.09;5023114;28;20194;-79
2023/09/01 11:36:07;;;;;;;3.63;1.77;;;;;;;28.37;68.74;99416.66;5022206;28;20268;-79
2023/09/01 11:38:34;;;;;;;3.75;2.00;;;;;;;28.63;69.77;99410.84;5023076;28;20214;-80